Spencer, Ohio
Current Conditions -  °F | °C
As of 6:53 PM on Friday 24 Oct 2014 (Local Time) from KLPR Reporting Station
Overcast Overcast  
Wind Chill: 56°   Ceiling: 4300
Heat Index: 56°   Visibility: 10mi
Dew Point: 47°   Wind: 0mph
Humidity: 72%   Direction: NA
Pressure: 30"   Gusts: NA
Location:  41.1°N, 82.12°W
Report Text: KLPR 242253Z AUTO 00000KT 10SM OVC043 13/08 A3000 RMK AO2 SLP162 T01330083 TSNO
Loading
Personal Weather Stations






























Interactive Weather Map
Tropical Storm Tracking
New forecast layout! Learn more

10-Day Weather Forecast

Advertisements
Track Severe Weather on mobile